sensor_id;sensor_type;location;lat;lon;timestamp;temperature;humidity
11894;DHT22;6006;49.696;8.662;2022-07-06T00:02:10;16.50;99.90
11894;DHT22;6006;49.696;8.662;2022-07-06T00:04:37;16.30;99.90
11894;DHT22;6006;49.696;8.662;2022-07-06T00:07:05;16.20;99.90
11894;DHT22;6006;49.696;8.662;2022-07-06T00:09:32;16.10;99.90
11894;DHT22;6006;49.696;8.662;2022-07-06T00:11:59;15.90;99.90
11894;DHT22;6006;49.696;8.662;2022-07-06T00:14:26;15.80;99.90
11894;DHT22;6006;49.696;8.662;2022-07-06T00:16:53;15.70;99.90
11894;DHT22;6006;49.696;8.662;2022-07-06T00:19:20;15.50;99.90
11894;DHT22;6006;49.696;8.662;2022-07-06T00:21:47;15.40;99.90
11894;DHT22;6006;49.696;8.662;2022-07-06T00:24:15;15.30;99.90
11894;DHT22;6006;49.696;8.662;2022-07-06T00:26:43;15.20;99.90
11894;DHT22;6006;49.696;8.662;2022-07-06T00:29:10;15.20;99.90
11894;DHT22;6006;49.696;8.662;2022-07-06T00:31:37;15.10;99.90
11894;DHT22;6006;49.696;8.662;2022-07-06T00:34:04;15.10;99.90
11894;DHT22;6006;49.696;8.662;2022-07-06T00:36:30;15.00;99.90
11894;DHT22;6006;49.696;8.662;2022-07-06T00:38:57;15.00;99.90
11894;DHT22;6006;49.696;8.662;2022-07-06T00:41:25;15.00;99.90
11894;DHT22;6006;49.696;8.662;2022-07-06T00:43:53;14.90;99.90
11894;DHT22;6006;49.696;8.662;2022-07-06T00:46:25;14.90;99.90
11894;DHT22;6006;49.696;8.662;2022-07-06T00:48:53;14.80;99.90
11894;DHT22;6006;49.696;8.662;2022-07-06T00:51:22;14.80;99.90
11894;DHT22;6006;49.696;8.662;2022-07-06T00:53:52;14.80;99.90
11894;DHT22;6006;49.696;8.662;2022-07-06T00:56:20;14.70;99.90
11894;DHT22;6006;49.696;8.662;2022-07-06T00:58:48;14.70;99.90
11894;DHT22;6006;49.696;8.662;2022-07-06T01:01:15;14.60;99.90
11894;DHT22;6006;49.696;8.662;2022-07-06T01:03:42;14.50;99.90
11894;DHT22;6006;49.696;8.662;2022-07-06T01:06:10;14.50;99.90
11894;DHT22;6006;49.696;8.662;2022-07-06T01:08:38;14.50;99.90
11894;DHT22;6006;49.696;8.662;2022-07-06T01:11:05;14.40;99.90
11894;DHT22;6006;49.696;8.662;2022-07-06T01:13:32;14.30;99.90
11894;DHT22;6006;49.696;8.662;2022-07-06T01:16:01;14.20;99.90
11894;DHT22;6006;49.696;8.662;2022-07-06T01:18:28;14.20;99.90
11894;DHT22;6006;49.696;8.662;2022-07-06T01:21:09;14.20;99.90
11894;DHT22;6006;49.696;8.662;2022-07-06T01:23:41;14.10;99.90
11894;DHT22;6006;49.696;8.662;2022-07-06T01:26:12;14.00;99.90
11894;DHT22;6006;49.696;8.662;2022-07-06T01:28:40;14.00;99.90
11894;DHT22;6006;49.696;8.662;2022-07-06T01:31:14;13.90;99.90
11894;DHT22;6006;49.696;8.662;2022-07-06T01:33:42;13.90;99.90
11894;DHT22;6006;49.696;8.662;2022-07-06T01:36:10;13.80;99.90
11894;DHT22;6006;49.696;8.662;2022-07-06T01:38:44;13.80;99.90
11894;DHT22;6006;49.696;8.662;2022-07-06T01:41:11;13.80;99.90
11894;DHT22;6006;49.696;8.662;2022-07-06T01:43:38;13.70;99.90
11894;DHT22;6006;49.696;8.662;2022-07-06T01:46:05;13.70;99.90
11894;DHT22;6006;49.696;8.662;2022-07-06T01:48:32;13.60;99.90
11894;DHT22;6006;49.696;8.662;2022-07-06T01:50:59;13.50;99.90
11894;DHT22;6006;49.696;8.662;2022-07-06T01:53:28;13.50;99.90
11894;DHT22;6006;49.696;8.662;2022-07-06T01:55:55;13.40;99.90
11894;DHT22;6006;49.696;8.662;2022-07-06T01:58:22;13.30;99.90
11894;DHT22;6006;49.696;8.662;2022-07-06T02:00:49;13.20;99.90
11894;DHT22;6006;49.696;8.662;2022-07-06T02:03:16;13.20;99.90
11894;DHT22;6006;49.696;8.662;2022-07-06T02:05:42;13.10;99.90
11894;DHT22;6006;49.696;8.662;2022-07-06T02:08:09;13.10;99.90
11894;DHT22;6006;49.696;8.662;2022-07-06T02:10:37;13.00;99.90
11894;DHT22;6006;49.696;8.662;2022-07-06T02:13:06;13.00;99.90
11894;DHT22;6006;49.696;8.662;2022-07-06T02:15:33;13.00;99.90
11894;DHT22;6006;49.696;8.662;2022-07-06T02:18:00;13.00;99.90
11894;DHT22;6006;49.696;8.662;2022-07-06T02:20:27;13.00;99.90
11894;DHT22;6006;49.696;8.662;2022-07-06T02:22:54;13.00;99.90
11894;DHT22;6006;49.696;8.662;2022-07-06T02:25:20;12.90;99.90
11894;DHT22;6006;49.696;8.662;2022-07-06T02:27:49;12.90;99.90
11894;DHT22;6006;49.696;8.662;2022-07-06T02:30:16;12.80;99.90
11894;DHT22;6006;49.696;8.662;2022-07-06T02:32:43;12.70;99.90
11894;DHT22;6006;49.696;8.662;2022-07-06T02:35:10;12.60;99.90
11894;DHT22;6006;49.696;8.662;2022-07-06T02:37:37;12.60;99.90
11894;DHT22;6006;49.696;8.662;2022-07-06T02:40:05;12.60;99.90
11894;DHT22;6006;49.696;8.662;2022-07-06T02:42:32;12.60;99.90
11894;DHT22;6006;49.696;8.662;2022-07-06T02:45:00;12.50;99.90
11894;DHT22;6006;49.696;8.662;2022-07-06T02:47:27;12.50;99.90
11894;DHT22;6006;49.696;8.662;2022-07-06T02:49:54;12.50;99.90
11894;DHT22;6006;49.696;8.662;2022-07-06T02:52:21;12.50;99.90
11894;DHT22;6006;49.696;8.662;2022-07-06T02:54:48;12.60;99.90
11894;DHT22;6006;49.696;8.662;2022-07-06T02:57:15;12.50;99.90
11894;DHT22;6006;49.696;8.662;2022-07-06T02:59:42;12.50;99.90
11894;DHT22;6006;49.696;8.662;2022-07-06T03:02:11;12.40;99.90
11894;DHT22;6006;49.696;8.662;2022-07-06T03:04:38;12.50;99.90
11894;DHT22;6006;49.696;8.662;2022-07-06T03:07:05;12.50;99.90
11894;DHT22;6006;49.696;8.662;2022-07-06T03:09:31;12.40;99.90
11894;DHT22;6006;49.696;8.662;2022-07-06T03:11:58;12.40;99.90
11894;DHT22;6006;49.696;8.662;2022-07-06T03:14:25;12.40;99.90
11894;DHT22;6006;49.696;8.662;2022-07-06T03:16:52;12.40;99.90
11894;DHT22;6006;49.696;8.662;2022-07-06T03:19:20;12.40;99.90
11894;DHT22;6006;49.696;8.662;2022-07-06T03:21:47;12.40;99.90
11894;DHT22;6006;49.696;8.662;2022-07-06T03:24:14;12.50;99.90
11894;DHT22;6006;49.696;8.662;2022-07-06T03:26:41;12.50;99.90
11894;DHT22;6006;49.696;8.662;2022-07-06T03:29:08;12.50;99.90
11894;DHT22;6006;49.696;8.662;2022-07-06T03:31:35;12.40;99.90
11894;DHT22;6006;49.696;8.662;2022-07-06T03:34:02;12.40;99.90
11894;DHT22;6006;49.696;8.662;2022-07-06T03:36:30;12.60;99.90
11894;DHT22;6006;49.696;8.662;2022-07-06T03:38:57;12.60;99.90
11894;DHT22;6006;49.696;8.662;2022-07-06T03:41:24;12.60;99.90
11894;DHT22;6006;49.696;8.662;2022-07-06T03:43:51;12.90;99.90
11894;DHT22;6006;49.696;8.662;2022-07-06T03:46:17;13.50;99.90
11894;DHT22;6006;49.696;8.662;2022-07-06T03:48:44;13.60;99.90
11894;DHT22;6006;49.696;8.662;2022-07-06T03:51:11;13.80;99.90
11894;DHT22;6006;49.696;8.662;2022-07-06T03:53:39;13.80;99.90
11894;DHT22;6006;49.696;8.662;2022-07-06T03:56:06;13.90;99.90
11894;DHT22;6006;49.696;8.662;2022-07-06T03:58:51;13.80;99.90
11894;DHT22;6006;49.696;8.662;2022-07-06T04:01:18;14.00;99.90
11894;DHT22;6006;49.696;8.662;2022-07-06T04:03:45;14.00;99.90
11894;DHT22;6006;49.696;8.662;2022-07-06T04:06:12;14.30;99.90
11894;DHT22;6006;49.696;8.662;2022-07-06T04:08:40;14.20;99.90
11894;DHT22;6006;49.696;8.662;2022-07-06T04:11:07;14.20;99.90
11894;DHT22;6006;49.696;8.662;2022-07-06T04:13:34;14.10;99.90
11894;DHT22;6006;49.696;8.662;2022-07-06T04:16:02;14.10;99.90
11894;DHT22;6006;49.696;8.662;2022-07-06T04:18:29;14.10;99.90
11894;DHT22;6006;49.696;8.662;2022-07-06T04:20:56;14.20;99.90
11894;DHT22;6006;49.696;8.662;2022-07-06T04:23:23;14.20;99.90
11894;DHT22;6006;49.696;8.662;2022-07-06T04:25:52;14.20;99.90
11894;DHT22;6006;49.696;8.662;2022-07-06T04:28:18;14.20;99.90
11894;DHT22;6006;49.696;8.662;2022-07-06T04:30:45;14.20;99.90
11894;DHT22;6006;49.696;8.662;2022-07-06T04:33:12;14.30;99.90
11894;DHT22;6006;49.696;8.662;2022-07-06T04:35:39;14.30;99.90
11894;DHT22;6006;49.696;8.662;2022-07-06T04:38:06;14.30;99.90
11894;DHT22;6006;49.696;8.662;2022-07-06T04:40:33;14.30;99.90
11894;DHT22;6006;49.696;8.662;2022-07-06T04:43:01;14.40;99.90
11894;DHT22;6006;49.696;8.662;2022-07-06T04:45:28;14.40;99.90
11894;DHT22;6006;49.696;8.662;2022-07-06T04:47:55;14.50;99.90
11894;DHT22;6006;49.696;8.662;2022-07-06T04:50:22;14.60;99.90
11894;DHT22;6006;49.696;8.662;2022-07-06T04:52:49;14.80;99.90
11894;DHT22;6006;49.696;8.662;2022-07-06T04:55:16;14.90;99.90
11894;DHT22;6006;49.696;8.662;2022-07-06T04:57:43;15.00;99.90
11894;DHT22;6006;49.696;8.662;2022-07-06T05:00:12;15.20;99.90
11894;DHT22;6006;49.696;8.662;2022-07-06T05:02:39;15.30;99.90
11894;DHT22;6006;49.696;8.662;2022-07-06T05:05:07;15.50;99.90
11894;DHT22;6006;49.696;8.662;2022-07-06T05:07:35;15.60;99.90
11894;DHT22;6006;49.696;8.662;2022-07-06T05:10:06;15.70;99.90
11894;DHT22;6006;49.696;8.662;2022-07-06T05:12:33;15.90;99.90
11894;DHT22;6006;49.696;8.662;2022-07-06T05:15:00;16.00;99.90
11894;DHT22;6006;49.696;8.662;2022-07-06T05:17:28;16.10;99.90
11894;DHT22;6006;49.696;8.662;2022-07-06T05:19:55;16.10;99.90
11894;DHT22;6006;49.696;8.662;2022-07-06T05:22:22;16.20;99.90
11894;DHT22;6006;49.696;8.662;2022-07-06T05:24:49;16.30;99.90
11894;DHT22;6006;49.696;8.662;2022-07-06T05:27:16;16.10;99.90
11894;DHT22;6006;49.696;8.662;2022-07-06T05:29:43;16.30;99.90
11894;DHT22;6006;49.696;8.662;2022-07-06T05:32:10;16.20;99.90
11894;DHT22;6006;49.696;8.662;2022-07-06T05:34:38;16.30;99.90
11894;DHT22;6006;49.696;8.662;2022-07-06T05:37:05;16.30;99.90
11894;DHT22;6006;49.696;8.662;2022-07-06T05:39:32;16.50;99.90
11894;DHT22;6006;49.696;8.662;2022-07-06T05:41:59;16.80;99.90
11894;DHT22;6006;49.696;8.662;2022-07-06T05:44:26;16.80;99.90
11894;DHT22;6006;49.696;8.662;2022-07-06T05:46:53;17.10;99.90
11894;DHT22;6006;49.696;8.662;2022-07-06T05:49:42;17.20;99.90
11894;DHT22;6006;49.696;8.662;2022-07-06T05:52:26;17.30;99.90
11894;DHT22;6006;49.696;8.662;2022-07-06T05:54:53;17.40;99.90
11894;DHT22;6006;49.696;8.662;2022-07-06T05:57:20;17.60;99.90
11894;DHT22;6006;49.696;8.662;2022-07-06T05:59:47;17.70;99.90
11894;DHT22;6006;49.696;8.662;2022-07-06T06:02:14;17.70;99.90
11894;DHT22;6006;49.696;8.662;2022-07-06T06:04:42;17.60;99.90
11894;DHT22;6006;49.696;8.662;2022-07-06T06:07:09;17.70;99.90
11894;DHT22;6006;49.696;8.662;2022-07-06T06:09:35;18.00;99.90
11894;DHT22;6006;49.696;8.662;2022-07-06T06:12:03;18.20;99.90
11894;DHT22;6006;49.696;8.662;2022-07-06T06:14:30;18.70;99.90
11894;DHT22;6006;49.696;8.662;2022-07-06T06:16:57;18.40;99.90
11894;DHT22;6006;49.696;8.662;2022-07-06T06:19:24;17.90;99.90
11894;DHT22;6006;49.696;8.662;2022-07-06T06:21:53;17.70;99.90
11894;DHT22;6006;49.696;8.662;2022-07-06T06:24:19;17.90;99.90
11894;DHT22;6006;49.696;8.662;2022-07-06T06:26:49;17.90;99.90
11894;DHT22;6006;49.696;8.662;2022-07-06T06:29:16;18.10;99.90
11894;DHT22;6006;49.696;8.662;2022-07-06T06:31:43;17.90;99.90
11894;DHT22;6006;49.696;8.662;2022-07-06T06:34:10;18.40;99.90
11894;DHT22;6006;49.696;8.662;2022-07-06T06:36:36;18.70;99.90
11894;DHT22;6006;49.696;8.662;2022-07-06T06:39:05;19.00;99.90
11894;DHT22;6006;49.696;8.662;2022-07-06T06:41:31;19.30;99.90
11894;DHT22;6006;49.696;8.662;2022-07-06T06:43:58;19.30;99.30
11894;DHT22;6006;49.696;8.662;2022-07-06T06:46:25;19.30;99.90
11894;DHT22;6006;49.696;8.662;2022-07-06T06:48:52;18.70;99.90
11894;DHT22;6006;49.696;8.662;2022-07-06T06:51:19;18.90;99.90
11894;DHT22;6006;49.696;8.662;2022-07-06T06:53:46;18.50;99.90
11894;DHT22;6006;49.696;8.662;2022-07-06T06:56:14;19.10;99.90
11894;DHT22;6006;49.696;8.662;2022-07-06T06:58:42;19.30;99.90
11894;DHT22;6006;49.696;8.662;2022-07-06T07:01:09;18.60;99.90
11894;DHT22;6006;49.696;8.662;2022-07-06T07:03:36;18.00;99.90
11894;DHT22;6006;49.696;8.662;2022-07-06T07:06:03;18.00;99.90
11894;DHT22;6006;49.696;8.662;2022-07-06T07:08:30;18.00;99.90
11894;DHT22;6006;49.696;8.662;2022-07-06T07:10:57;18.30;99.90
11894;DHT22;6006;49.696;8.662;2022-07-06T07:13:25;18.40;99.90
11894;DHT22;6006;49.696;8.662;2022-07-06T07:15:52;18.00;99.90
11894;DHT22;6006;49.696;8.662;2022-07-06T07:18:19;17.60;99.90
11894;DHT22;6006;49.696;8.662;2022-07-06T07:20:46;17.80;99.90
11894;DHT22;6006;49.696;8.662;2022-07-06T07:23:12;17.60;99.90
11894;DHT22;6006;49.696;8.662;2022-07-06T07:25:40;17.60;99.90
11894;DHT22;6006;49.696;8.662;2022-07-06T07:28:07;17.80;99.90
11894;DHT22;6006;49.696;8.662;2022-07-06T07:30:35;18.20;99.90
11894;DHT22;6006;49.696;8.662;2022-07-06T07:33:02;19.10;99.90
11894;DHT22;6006;49.696;8.662;2022-07-06T07:35:29;19.20;99.90
11894;DHT22;6006;49.696;8.662;2022-07-06T07:37:56;18.40;99.90
11894;DHT22;6006;49.696;8.662;2022-07-06T07:40:23;18.70;99.90
11894;DHT22;6006;49.696;8.662;2022-07-06T07:42:50;19.20;99.90
11894;DHT22;6006;49.696;8.662;2022-07-06T07:45:17;19.20;99.90
11894;DHT22;6006;49.696;8.662;2022-07-06T07:47:45;20.40;98.50
11894;DHT22;6006;49.696;8.662;2022-07-06T07:50:12;21.10;94.20
11894;DHT22;6006;49.696;8.662;2022-07-06T07:52:39;21.80;92.40
11894;DHT22;6006;49.696;8.662;2022-07-06T07:55:06;21.70;93.30
11894;DHT22;6006;49.696;8.662;2022-07-06T07:57:33;22.00;91.90
11894;DHT22;6006;49.696;8.662;2022-07-06T08:00:00;20.80;93.80
11894;DHT22;6006;49.696;8.662;2022-07-06T08:02:27;21.80;92.40
11894;DHT22;6006;49.696;8.662;2022-07-06T08:04:55;22.30;90.20
11894;DHT22;6006;49.696;8.662;2022-07-06T08:07:22;22.90;87.80
11894;DHT22;6006;49.696;8.662;2022-07-06T08:09:49;22.90;88.00
11894;DHT22;6006;49.696;8.662;2022-07-06T08:12:16;22.40;87.30
11894;DHT22;6006;49.696;8.662;2022-07-06T08:14:43;22.10;87.40
11894;DHT22;6006;49.696;8.662;2022-07-06T08:17:10;22.40;86.20
11894;DHT22;6006;49.696;8.662;2022-07-06T08:19:36;22.20;86.80
11894;DHT22;6006;49.696;8.662;2022-07-06T08:22:05;21.40;87.90
11894;DHT22;6006;49.696;8.662;2022-07-06T08:24:33;20.90;93.40
11894;DHT22;6006;49.696;8.662;2022-07-06T08:27:00;20.80;90.40
11894;DHT22;6006;49.696;8.662;2022-07-06T08:29:27;20.80;90.90
11894;DHT22;6006;49.696;8.662;2022-07-06T08:31:54;21.10;90.50
11894;DHT22;6006;49.696;8.662;2022-07-06T08:34:21;21.20;90.90
11894;DHT22;6006;49.696;8.662;2022-07-06T08:36:48;20.50;91.20
11894;DHT22;6006;49.696;8.662;2022-07-06T08:39:16;20.80;91.50
11894;DHT22;6006;49.696;8.662;2022-07-06T08:41:44;21.30;92.20
11894;DHT22;6006;49.696;8.662;2022-07-06T08:44:14;21.50;90.30
11894;DHT22;6006;49.696;8.662;2022-07-06T08:46:42;21.70;88.60
11894;DHT22;6006;49.696;8.662;2022-07-06T08:49:12;21.80;90.30
11894;DHT22;6006;49.696;8.662;2022-07-06T08:51:40;21.90;86.60
11894;DHT22;6006;49.696;8.662;2022-07-06T08:54:08;22.70;87.20
11894;DHT22;6006;49.696;8.662;2022-07-06T08:56:36;23.00;88.30
11894;DHT22;6006;49.696;8.662;2022-07-06T08:59:03;22.70;81.70
11894;DHT22;6006;49.696;8.662;2022-07-06T09:01:30;22.80;82.20
11894;DHT22;6006;49.696;8.662;2022-07-06T09:03:58;22.60;85.20
11894;DHT22;6006;49.696;8.662;2022-07-06T09:06:27;23.00;77.90
11894;DHT22;6006;49.696;8.662;2022-07-06T09:08:55;23.30;79.40
11894;DHT22;6006;49.696;8.662;2022-07-06T09:11:23;22.70;78.00
11894;DHT22;6006;49.696;8.662;2022-07-06T09:13:52;22.70;77.30
11894;DHT22;6006;49.696;8.662;2022-07-06T09:16:26;23.10;74.70
11894;DHT22;6006;49.696;8.662;2022-07-06T09:18:54;22.60;76.80
11894;DHT22;6006;49.696;8.662;2022-07-06T09:21:26;21.60;80.90
11894;DHT22;6006;49.696;8.662;2022-07-06T09:23:56;21.00;82.90
11894;DHT22;6006;49.696;8.662;2022-07-06T09:26:24;21.10;84.30
11894;DHT22;6006;49.696;8.662;2022-07-06T09:28:52;20.80;87.10
11894;DHT22;6006;49.696;8.662;2022-07-06T09:31:21;21.10;90.40
11894;DHT22;6006;49.696;8.662;2022-07-06T09:33:55;21.20;84.60
11894;DHT22;6006;49.696;8.662;2022-07-06T09:36:40;21.30;83.20
11894;DHT22;6006;49.696;8.662;2022-07-06T09:39:19;21.00;81.80
11894;DHT22;6006;49.696;8.662;2022-07-06T09:41:46;21.00;82.50
11894;DHT22;6006;49.696;8.662;2022-07-06T09:44:18;21.40;81.80
11894;DHT22;6006;49.696;8.662;2022-07-06T09:46:46;22.10;82.20
11894;DHT22;6006;49.696;8.662;2022-07-06T09:49:16;23.00;74.80
11894;DHT22;6006;49.696;8.662;2022-07-06T09:51:44;22.50;71.20
11894;DHT22;6006;49.696;8.662;2022-07-06T09:54:12;22.00;75.60
11894;DHT22;6006;49.696;8.662;2022-07-06T09:56:40;22.50;73.40
11894;DHT22;6006;49.696;8.662;2022-07-06T09:59:10;22.80;75.00
11894;DHT22;6006;49.696;8.662;2022-07-06T10:01:39;23.50;69.00
11894;DHT22;6006;49.696;8.662;2022-07-06T10:04:07;23.60;69.40
11894;DHT22;6006;49.696;8.662;2022-07-06T10:06:35;24.90;65.70
11894;DHT22;6006;49.696;8.662;2022-07-06T10:09:05;24.50;68.30
11894;DHT22;6006;49.696;8.662;2022-07-06T10:11:34;24.70;60.30
11894;DHT22;6006;49.696;8.662;2022-07-06T10:14:05;24.70;59.90
11894;DHT22;6006;49.696;8.662;2022-07-06T10:16:35;24.30;65.00
11894;DHT22;6006;49.696;8.662;2022-07-06T10:19:05;24.60;59.20
11894;DHT22;6006;49.696;8.662;2022-07-06T10:21:32;24.50;60.00
11894;DHT22;6006;49.696;8.662;2022-07-06T10:24:01;24.40;56.60
11894;DHT22;6006;49.696;8.662;2022-07-06T10:26:28;24.50;57.30
11894;DHT22;6006;49.696;8.662;2022-07-06T10:28:58;23.40;57.60
11894;DHT22;6006;49.696;8.662;2022-07-06T10:31:25;23.00;58.30
11894;DHT22;6006;49.696;8.662;2022-07-06T10:33:55;22.70;61.10
11894;DHT22;6006;49.696;8.662;2022-07-06T10:36:24;23.30;60.10
11894;DHT22;6006;49.696;8.662;2022-07-06T10:38:51;23.90;56.10
11894;DHT22;6006;49.696;8.662;2022-07-06T10:41:30;23.60;60.70
11894;DHT22;6006;49.696;8.662;2022-07-06T10:43:56;24.20;59.70
11894;DHT22;6006;49.696;8.662;2022-07-06T10:46:28;24.20;56.60
11894;DHT22;6006;49.696;8.662;2022-07-06T10:48:56;23.00;58.50
11894;DHT22;6006;49.696;8.662;2022-07-06T10:51:25;23.20;59.70
11894;DHT22;6006;49.696;8.662;2022-07-06T10:53:56;22.50;58.30
11894;DHT22;6006;49.696;8.662;2022-07-06T10:56:32;23.60;61.90
11894;DHT22;6006;49.696;8.662;2022-07-06T10:59:02;23.60;54.20
11894;DHT22;6006;49.696;8.662;2022-07-06T11:01:29;22.80;61.60
11894;DHT22;6006;49.696;8.662;2022-07-06T11:04:06;23.20;57.80
11894;DHT22;6006;49.696;8.662;2022-07-06T11:06:36;24.00;54.90
11894;DHT22;6006;49.696;8.662;2022-07-06T11:09:04;24.60;51.30
11894;DHT22;6006;49.696;8.662;2022-07-06T11:11:42;23.90;53.10
11894;DHT22;6006;49.696;8.662;2022-07-06T11:14:14;25.70;51.60
11894;DHT22;6006;49.696;8.662;2022-07-06T11:16:59;26.50;43.60
11894;DHT22;6006;49.696;8.662;2022-07-06T11:19:28;27.10;43.40
11894;DHT22;6006;49.696;8.662;2022-07-06T11:21:57;26.50;44.70
11894;DHT22;6006;49.696;8.662;2022-07-06T11:24:27;24.60;48.80
11894;DHT22;6006;49.696;8.662;2022-07-06T11:26:55;24.10;54.60
11894;DHT22;6006;49.696;8.662;2022-07-06T11:29:23;24.60;48.60
11894;DHT22;6006;49.696;8.662;2022-07-06T11:31:52;24.20;43.00
11894;DHT22;6006;49.696;8.662;2022-07-06T11:34:20;25.30;45.00
11894;DHT22;6006;49.696;8.662;2022-07-06T11:36:47;25.80;36.90
11894;DHT22;6006;49.696;8.662;2022-07-06T11:39:15;25.90;37.60
11894;DHT22;6006;49.696;8.662;2022-07-06T11:41:42;26.90;36.70
11894;DHT22;6006;49.696;8.662;2022-07-06T11:44:09;26.10;33.40
11894;DHT22;6006;49.696;8.662;2022-07-06T11:46:36;26.30;30.40
11894;DHT22;6006;49.696;8.662;2022-07-06T11:49:04;26.40;30.70
11894;DHT22;6006;49.696;8.662;2022-07-06T11:51:33;26.50;32.90
11894;DHT22;6006;49.696;8.662;2022-07-06T11:54:01;26.60;33.10
11894;DHT22;6006;49.696;8.662;2022-07-06T11:56:35;27.60;31.50
11894;DHT22;6006;49.696;8.662;2022-07-06T11:59:03;27.10;28.70
11894;DHT22;6006;49.696;8.662;2022-07-06T12:01:30;27.10;27.00
11894;DHT22;6006;49.696;8.662;2022-07-06T12:03:58;26.10;32.60
11894;DHT22;6006;49.696;8.662;2022-07-06T12:06:29;25.10;34.50
11894;DHT22;6006;49.696;8.662;2022-07-06T12:08:58;24.80;29.20
11894;DHT22;6006;49.696;8.662;2022-07-06T12:11:26;26.40;31.30
11894;DHT22;6006;49.696;8.662;2022-07-06T12:13:57;27.50;25.30
11894;DHT22;6006;49.696;8.662;2022-07-06T12:16:29;27.40;27.50
11894;DHT22;6006;49.696;8.662;2022-07-06T12:18:56;26.80;24.40
11894;DHT22;6006;49.696;8.662;2022-07-06T12:21:23;27.60;25.60
11894;DHT22;6006;49.696;8.662;2022-07-06T12:23:52;27.90;24.70
11894;DHT22;6006;49.696;8.662;2022-07-06T12:26:21;28.10;21.50
11894;DHT22;6006;49.696;8.662;2022-07-06T12:29:01;27.00;20.50
11894;DHT22;6006;49.696;8.662;2022-07-06T12:31:32;26.90;21.80
11894;DHT22;6006;49.696;8.662;2022-07-06T12:33:59;27.20;21.90
11894;DHT22;6006;49.696;8.662;2022-07-06T12:36:26;27.10;22.40
11894;DHT22;6006;49.696;8.662;2022-07-06T12:38:53;26.50;23.50
11894;DHT22;6006;49.696;8.662;2022-07-06T12:41:27;25.30;24.10
11894;DHT22;6006;49.696;8.662;2022-07-06T12:44:06;25.20;26.70
11894;DHT22;6006;49.696;8.662;2022-07-06T12:46:35;26.30;25.10
11894;DHT22;6006;49.696;8.662;2022-07-06T12:49:12;27.20;22.70
11894;DHT22;6006;49.696;8.662;2022-07-06T12:51:52;25.60;25.50
11894;DHT22;6006;49.696;8.662;2022-07-06T12:54:20;26.10;24.30
11894;DHT22;6006;49.696;8.662;2022-07-06T12:57:05;26.20;25.40
11894;DHT22;6006;49.696;8.662;2022-07-06T12:59:36;26.00;26.20
11894;DHT22;6006;49.696;8.662;2022-07-06T13:02:04;26.30;24.80
11894;DHT22;6006;49.696;8.662;2022-07-06T13:04:32;26.60;23.30
11894;DHT22;6006;49.696;8.662;2022-07-06T13:07:00;26.90;28.10
11894;DHT22;6006;49.696;8.662;2022-07-06T13:09:27;26.80;19.20
11894;DHT22;6006;49.696;8.662;2022-07-06T13:11:55;27.60;21.10
11894;DHT22;6006;49.696;8.662;2022-07-06T13:14:22;27.30;19.70
11894;DHT22;6006;49.696;8.662;2022-07-06T13:16:50;27.00;23.70
11894;DHT22;6006;49.696;8.662;2022-07-06T13:19:17;28.30;19.20
11894;DHT22;6006;49.696;8.662;2022-07-06T13:21:44;27.50;21.60
11894;DHT22;6006;49.696;8.662;2022-07-06T13:24:11;27.60;19.00
11894;DHT22;6006;49.696;8.662;2022-07-06T13:26:38;27.70;18.00
11894;DHT22;6006;49.696;8.662;2022-07-06T13:29:05;27.50;17.30
11894;DHT22;6006;49.696;8.662;2022-07-06T13:31:32;26.90;18.10
11894;DHT22;6006;49.696;8.662;2022-07-06T13:34:00;26.80;20.80
11894;DHT22;6006;49.696;8.662;2022-07-06T13:36:27;27.10;18.70
11894;DHT22;6006;49.696;8.662;2022-07-06T13:38:54;27.20;19.60
11894;DHT22;6006;49.696;8.662;2022-07-06T13:41:21;26.90;19.90
11894;DHT22;6006;49.696;8.662;2022-07-06T13:43:48;24.90;20.60
11894;DHT22;6006;49.696;8.662;2022-07-06T13:46:15;25.70;21.80
11894;DHT22;6006;49.696;8.662;2022-07-06T13:48:43;26.60;21.20
11894;DHT22;6006;49.696;8.662;2022-07-06T13:51:11;27.60;18.60
11894;DHT22;6006;49.696;8.662;2022-07-06T13:53:39;26.70;16.90
11894;DHT22;6006;49.696;8.662;2022-07-06T13:56:06;25.40;19.90
11894;DHT22;6006;49.696;8.662;2022-07-06T13:58:33;26.00;18.20
11894;DHT22;6006;49.696;8.662;2022-07-06T14:01:00;26.20;20.40
11894;DHT22;6006;49.696;8.662;2022-07-06T14:03:27;26.10;16.80
11894;DHT22;6006;49.696;8.662;2022-07-06T14:05:56;26.40;17.00
11894;DHT22;6006;49.696;8.662;2022-07-06T14:08:25;26.50;21.00
11894;DHT22;6006;49.696;8.662;2022-07-06T14:10:52;26.80;17.70
11894;DHT22;6006;49.696;8.662;2022-07-06T14:13:20;27.60;17.30
11894;DHT22;6006;49.696;8.662;2022-07-06T14:15:46;27.80;16.70
11894;DHT22;6006;49.696;8.662;2022-07-06T14:18:13;27.50;16.80
11894;DHT22;6006;49.696;8.662;2022-07-06T14:20:43;26.80;17.50
11894;DHT22;6006;49.696;8.662;2022-07-06T14:23:09;27.30;17.00
11894;DHT22;6006;49.696;8.662;2022-07-06T14:25:38;28.00;15.20
11894;DHT22;6006;49.696;8.662;2022-07-06T14:28:05;28.40;15.40
11894;DHT22;6006;49.696;8.662;2022-07-06T14:30:32;27.60;15.20
11894;DHT22;6006;49.696;8.662;2022-07-06T14:33:02;27.70;16.70
11894;DHT22;6006;49.696;8.662;2022-07-06T14:35:32;27.30;16.00
11894;DHT22;6006;49.696;8.662;2022-07-06T14:37:59;26.70;17.50
11894;DHT22;6006;49.696;8.662;2022-07-06T14:40:26;26.10;18.40
11894;DHT22;6006;49.696;8.662;2022-07-06T14:42:54;26.90;20.70
11894;DHT22;6006;49.696;8.662;2022-07-06T14:45:21;27.10;18.00
11894;DHT22;6006;49.696;8.662;2022-07-06T14:47:48;27.10;16.80
11894;DHT22;6006;49.696;8.662;2022-07-06T14:50:15;27.10;17.50
11894;DHT22;6006;49.696;8.662;2022-07-06T14:52:42;25.70;17.70
11894;DHT22;6006;49.696;8.662;2022-07-06T14:55:09;24.30;21.70
11894;DHT22;6006;49.696;8.662;2022-07-06T14:57:36;24.30;22.20
11894;DHT22;6006;49.696;8.662;2022-07-06T15:00:05;24.70;20.60
11894;DHT22;6006;49.696;8.662;2022-07-06T15:02:32;25.60;19.80
11894;DHT22;6006;49.696;8.662;2022-07-06T15:04:59;24.80;19.60
11894;DHT22;6006;49.696;8.662;2022-07-06T15:07:26;24.10;21.50
11894;DHT22;6006;49.696;8.662;2022-07-06T15:09:53;24.20;22.70
11894;DHT22;6006;49.696;8.662;2022-07-06T15:12:20;24.20;23.00
11894;DHT22;6006;49.696;8.662;2022-07-06T15:14:47;24.20;21.00
11894;DHT22;6006;49.696;8.662;2022-07-06T15:17:15;23.60;25.10
11894;DHT22;6006;49.696;8.662;2022-07-06T15:19:42;23.50;24.20
11894;DHT22;6006;49.696;8.662;2022-07-06T15:22:10;24.00;24.20
11894;DHT22;6006;49.696;8.662;2022-07-06T15:24:37;24.00;23.40
11894;DHT22;6006;49.696;8.662;2022-07-06T15:27:05;24.20;22.30
11894;DHT22;6006;49.696;8.662;2022-07-06T15:29:32;23.30;22.00
11894;DHT22;6006;49.696;8.662;2022-07-06T15:31:59;22.70;25.30
11894;DHT22;6006;49.696;8.662;2022-07-06T15:34:27;22.80;24.20
11894;DHT22;6006;49.696;8.662;2022-07-06T15:36:55;23.10;24.20
11894;DHT22;6006;49.696;8.662;2022-07-06T15:39:22;22.50;24.90
11894;DHT22;6006;49.696;8.662;2022-07-06T15:41:49;22.30;24.30
11894;DHT22;6006;49.696;8.662;2022-07-06T15:44:16;22.10;25.90
11894;DHT22;6006;49.696;8.662;2022-07-06T15:46:42;22.40;24.30
11894;DHT22;6006;49.696;8.662;2022-07-06T15:49:12;22.20;24.00
11894;DHT22;6006;49.696;8.662;2022-07-06T15:51:40;22.10;25.10